sensor_id;sensor_type;location;lat;lon;timestamp;temperature;humidity
4183;DHT22;2105;52.300;9.182;2022-07-04T00:01:01;14.70;99.90
4183;DHT22;2105;52.300;9.182;2022-07-04T00:03:28;14.70;99.90
4183;DHT22;2105;52.300;9.182;2022-07-04T00:05:54;14.70;99.90
4183;DHT22;2105;52.300;9.182;2022-07-04T00:08:21;14.80;99.90
4183;DHT22;2105;52.300;9.182;2022-07-04T00:10:48;14.80;99.90
4183;DHT22;2105;52.300;9.182;2022-07-04T00:13:15;14.90;99.90
4183;DHT22;2105;52.300;9.182;2022-07-04T00:15:41;15.00;99.90
4183;DHT22;2105;52.300;9.182;2022-07-04T00:18:09;15.10;99.90
4183;DHT22;2105;52.300;9.182;2022-07-04T00:20:36;15.10;99.90
4183;DHT22;2105;52.300;9.182;2022-07-04T00:23:03;15.00;99.90
4183;DHT22;2105;52.300;9.182;2022-07-04T00:25:29;14.90;99.90
4183;DHT22;2105;52.300;9.182;2022-07-04T00:27:56;14.80;99.90
4183;DHT22;2105;52.300;9.182;2022-07-04T00:30:22;14.60;99.90
4183;DHT22;2105;52.300;9.182;2022-07-04T00:32:49;14.50;99.90
4183;DHT22;2105;52.300;9.182;2022-07-04T00:35:17;14.50;99.90
4183;DHT22;2105;52.300;9.182;2022-07-04T00:37:44;14.60;99.90
4183;DHT22;2105;52.300;9.182;2022-07-04T00:40:11;14.60;99.90
4183;DHT22;2105;52.300;9.182;2022-07-04T00:42:38;14.70;99.90
4183;DHT22;2105;52.300;9.182;2022-07-04T00:45:05;14.70;99.90
4183;DHT22;2105;52.300;9.182;2022-07-04T00:47:32;14.90;99.90
4183;DHT22;2105;52.300;9.182;2022-07-04T00:49:59;14.80;99.90
4183;DHT22;2105;52.300;9.182;2022-07-04T00:52:28;14.90;99.90
4183;DHT22;2105;52.300;9.182;2022-07-04T00:54:54;14.90;99.90
4183;DHT22;2105;52.300;9.182;2022-07-04T00:57:22;15.00;99.90
4183;DHT22;2105;52.300;9.182;2022-07-04T00:59:48;15.00;99.90
4183;DHT22;2105;52.300;9.182;2022-07-04T01:02:15;15.10;99.90
4183;DHT22;2105;52.300;9.182;2022-07-04T01:04:42;15.10;99.90
4183;DHT22;2105;52.300;9.182;2022-07-04T01:07:11;15.20;99.90
4183;DHT22;2105;52.300;9.182;2022-07-04T01:09:39;15.20;99.90
4183;DHT22;2105;52.300;9.182;2022-07-04T01:12:06;15.20;99.90
4183;DHT22;2105;52.300;9.182;2022-07-04T01:14:36;15.30;99.90
4183;DHT22;2105;52.300;9.182;2022-07-04T01:17:04;15.30;99.90
4183;DHT22;2105;52.300;9.182;2022-07-04T01:19:30;15.40;99.90
4183;DHT22;2105;52.300;9.182;2022-07-04T01:22:03;15.20;99.90
4183;DHT22;2105;52.300;9.182;2022-07-04T01:24:31;15.20;99.90
4183;DHT22;2105;52.300;9.182;2022-07-04T01:26:58;15.10;99.90
4183;DHT22;2105;52.300;9.182;2022-07-04T01:29:24;15.10;99.90
4183;DHT22;2105;52.300;9.182;2022-07-04T01:31:51;15.10;99.90
4183;DHT22;2105;52.300;9.182;2022-07-04T01:34:19;15.00;99.90
4183;DHT22;2105;52.300;9.182;2022-07-04T01:36:45;15.10;99.90
4183;DHT22;2105;52.300;9.182;2022-07-04T01:39:13;15.20;99.90
4183;DHT22;2105;52.300;9.182;2022-07-04T01:41:40;15.30;99.90
4183;DHT22;2105;52.300;9.182;2022-07-04T01:44:06;15.20;99.90
4183;DHT22;2105;52.300;9.182;2022-07-04T01:46:33;15.10;99.90
4183;DHT22;2105;52.300;9.182;2022-07-04T01:49:00;15.00;99.90
4183;DHT22;2105;52.300;9.182;2022-07-04T01:51:26;15.00;99.90
4183;DHT22;2105;52.300;9.182;2022-07-04T01:53:53;15.00;99.90
4183;DHT22;2105;52.300;9.182;2022-07-04T01:56:21;15.00;99.90
4183;DHT22;2105;52.300;9.182;2022-07-04T01:58:47;15.10;99.90
4183;DHT22;2105;52.300;9.182;2022-07-04T02:01:14;15.00;99.90
4183;DHT22;2105;52.300;9.182;2022-07-04T02:03:55;15.00;99.90
4183;DHT22;2105;52.300;9.182;2022-07-04T02:06:22;15.00;99.90
4183;DHT22;2105;52.300;9.182;2022-07-04T02:08:49;15.00;99.90
4183;DHT22;2105;52.300;9.182;2022-07-04T02:11:34;15.00;99.90
4183;DHT22;2105;52.300;9.182;2022-07-04T02:14:15;15.00;99.90
4183;DHT22;2105;52.300;9.182;2022-07-04T02:16:41;15.10;99.90
4183;DHT22;2105;52.300;9.182;2022-07-04T02:19:08;15.10;99.90
4183;DHT22;2105;52.300;9.182;2022-07-04T02:21:35;15.30;99.90
4183;DHT22;2105;52.300;9.182;2022-07-04T02:24:02;15.40;99.90
4183;DHT22;2105;52.300;9.182;2022-07-04T02:26:29;15.30;99.90
4183;DHT22;2105;52.300;9.182;2022-07-04T02:28:57;15.20;99.90
4183;DHT22;2105;52.300;9.182;2022-07-04T02:31:23;15.20;99.90
4183;DHT22;2105;52.300;9.182;2022-07-04T02:33:50;15.20;99.90
4183;DHT22;2105;52.300;9.182;2022-07-04T02:36:17;15.20;99.90
4183;DHT22;2105;52.300;9.182;2022-07-04T02:38:44;15.10;99.90
4183;DHT22;2105;52.300;9.182;2022-07-04T02:41:10;15.10;99.90
4183;DHT22;2105;52.300;9.182;2022-07-04T02:43:37;15.00;99.90
4183;DHT22;2105;52.300;9.182;2022-07-04T02:46:05;15.00;99.90
4183;DHT22;2105;52.300;9.182;2022-07-04T02:48:31;15.00;99.90
4183;DHT22;2105;52.300;9.182;2022-07-04T02:50:58;15.10;99.90
4183;DHT22;2105;52.300;9.182;2022-07-04T02:53:25;15.20;99.90
4183;DHT22;2105;52.300;9.182;2022-07-04T02:55:52;15.20;99.90
4183;DHT22;2105;52.300;9.182;2022-07-04T02:58:18;15.20;99.90
4183;DHT22;2105;52.300;9.182;2022-07-04T03:00:45;15.20;99.90
4183;DHT22;2105;52.300;9.182;2022-07-04T03:03:13;15.30;99.90
4183;DHT22;2105;52.300;9.182;2022-07-04T03:05:40;15.20;99.90
4183;DHT22;2105;52.300;9.182;2022-07-04T03:08:06;15.20;99.90
4183;DHT22;2105;52.300;9.182;2022-07-04T03:10:33;15.20;99.90
4183;DHT22;2105;52.300;9.182;2022-07-04T03:12:59;15.20;99.90
4183;DHT22;2105;52.300;9.182;2022-07-04T03:15:26;15.20;99.90
4183;DHT22;2105;52.300;9.182;2022-07-04T03:17:53;15.10;99.90
4183;DHT22;2105;52.300;9.182;2022-07-04T03:20:21;15.20;99.90
4183;DHT22;2105;52.300;9.182;2022-07-04T03:22:48;15.10;99.90
4183;DHT22;2105;52.300;9.182;2022-07-04T03:25:16;15.00;99.90
4183;DHT22;2105;52.300;9.182;2022-07-04T03:27:43;15.00;99.90
4183;DHT22;2105;52.300;9.182;2022-07-04T03:30:11;15.20;99.90
4183;DHT22;2105;52.300;9.182;2022-07-04T03:32:37;15.30;99.90
4183;DHT22;2105;52.300;9.182;2022-07-04T03:35:05;15.30;99.90
4183;DHT22;2105;52.300;9.182;2022-07-04T03:37:33;15.40;99.90
4183;DHT22;2105;52.300;9.182;2022-07-04T03:40:00;15.40;99.90
4183;DHT22;2105;52.300;9.182;2022-07-04T03:42:26;15.50;99.90
4183;DHT22;2105;52.300;9.182;2022-07-04T03:44:53;15.40;99.90
4183;DHT22;2105;52.300;9.182;2022-07-04T03:47:20;15.50;99.90
4183;DHT22;2105;52.300;9.182;2022-07-04T03:49:46;15.50;99.90
4183;DHT22;2105;52.300;9.182;2022-07-04T03:52:13;15.60;99.90
4183;DHT22;2105;52.300;9.182;2022-07-04T03:54:41;15.60;99.90
4183;DHT22;2105;52.300;9.182;2022-07-04T03:57:07;15.70;99.90
4183;DHT22;2105;52.300;9.182;2022-07-04T03:59:34;15.60;99.90
4183;DHT22;2105;52.300;9.182;2022-07-04T04:02:01;15.70;99.90
4183;DHT22;2105;52.300;9.182;2022-07-04T04:04:27;15.70;99.90
4183;DHT22;2105;52.300;9.182;2022-07-04T04:07:12;15.70;99.90
4183;DHT22;2105;52.300;9.182;2022-07-04T04:09:38;15.70;99.90
4183;DHT22;2105;52.300;9.182;2022-07-04T04:12:07;15.70;99.90
4183;DHT22;2105;52.300;9.182;2022-07-04T04:14:34;15.70;99.90
4183;DHT22;2105;52.300;9.182;2022-07-04T04:17:00;15.70;99.90
4183;DHT22;2105;52.300;9.182;2022-07-04T04:19:27;15.70;99.90
4183;DHT22;2105;52.300;9.182;2022-07-04T04:21:54;15.60;99.90
4183;DHT22;2105;52.300;9.182;2022-07-04T04:24:20;15.60;99.90
4183;DHT22;2105;52.300;9.182;2022-07-04T04:26:47;15.70;99.90
4183;DHT22;2105;52.300;9.182;2022-07-04T04:29:15;15.70;99.90
4183;DHT22;2105;52.300;9.182;2022-07-04T04:31:42;15.70;99.90
4183;DHT22;2105;52.300;9.182;2022-07-04T04:34:08;15.80;99.90
4183;DHT22;2105;52.300;9.182;2022-07-04T04:36:35;15.80;99.90
4183;DHT22;2105;52.300;9.182;2022-07-04T04:39:02;15.80;99.90
4183;DHT22;2105;52.300;9.182;2022-07-04T04:41:28;15.90;99.90
4183;DHT22;2105;52.300;9.182;2022-07-04T04:43:55;16.00;99.90
4183;DHT22;2105;52.300;9.182;2022-07-04T04:46:24;16.00;91.20
4183;DHT22;2105;52.300;9.182;2022-07-04T04:48:50;15.90;97.00
4183;DHT22;2105;52.300;9.182;2022-07-04T04:51:17;16.00;99.90
4183;DHT22;2105;52.300;9.182;2022-07-04T04:53:44;16.00;99.90
4183;DHT22;2105;52.300;9.182;2022-07-04T04:56:10;16.10;99.00
4183;DHT22;2105;52.300;9.182;2022-07-04T04:58:37;16.10;23.40
4183;DHT22;2105;52.300;9.182;2022-07-04T05:01:04;16.10;28.60
4183;DHT22;2105;52.300;9.182;2022-07-04T05:03:32;16.20;65.30
4183;DHT22;2105;52.300;9.182;2022-07-04T05:05:59;16.20;21.10
4183;DHT22;2105;52.300;9.182;2022-07-04T05:08:26;16.20;15.30
4183;DHT22;2105;52.300;9.182;2022-07-04T05:10:53;16.10;17.50
4183;DHT22;2105;52.300;9.182;2022-07-04T05:13:20;16.00;49.70
4183;DHT22;2105;52.300;9.182;2022-07-04T05:15:47;16.10;99.00
4183;DHT22;2105;52.300;9.182;2022-07-04T05:18:14;16.20;99.90
4183;DHT22;2105;52.300;9.182;2022-07-04T05:20:42;16.20;81.40
4183;DHT22;2105;52.300;9.182;2022-07-04T05:23:09;16.20;33.80
4183;DHT22;2105;52.300;9.182;2022-07-04T05:25:35;16.20;35.20
4183;DHT22;2105;52.300;9.182;2022-07-04T05:28:02;16.20;64.60
4183;DHT22;2105;52.300;9.182;2022-07-04T05:30:29;16.40;66.20
4183;DHT22;2105;52.300;9.182;2022-07-04T05:32:56;16.50;5.00
4183;DHT22;2105;52.300;9.182;2022-07-04T05:35:23;16.80;1.00
4183;DHT22;2105;52.300;9.182;2022-07-04T05:37:51;16.80;1.00
4183;DHT22;2105;52.300;9.182;2022-07-04T05:40:18;16.90;1.00
4183;DHT22;2105;52.300;9.182;2022-07-04T05:42:46;17.00;1.00
4183;DHT22;2105;52.300;9.182;2022-07-04T05:45:14;17.10;1.00
4183;DHT22;2105;52.300;9.182;2022-07-04T05:47:41;17.10;1.00
4183;DHT22;2105;52.300;9.182;2022-07-04T05:50:08;17.20;99.90
4183;DHT22;2105;52.300;9.182;2022-07-04T05:52:35;17.50;99.90
4183;DHT22;2105;52.300;9.182;2022-07-04T05:55:03;17.60;99.90
4183;DHT22;2105;52.300;9.182;2022-07-04T05:57:32;17.70;99.90
4183;DHT22;2105;52.300;9.182;2022-07-04T05:59:58;17.70;99.90
4183;DHT22;2105;52.300;9.182;2022-07-04T06:02:25;17.70;99.90
4183;DHT22;2105;52.300;9.182;2022-07-04T06:04:52;17.70;99.90
4183;DHT22;2105;52.300;9.182;2022-07-04T06:07:18;17.70;99.90
4183;DHT22;2105;52.300;9.182;2022-07-04T06:09:45;17.90;31.30
4183;DHT22;2105;52.300;9.182;2022-07-04T06:12:13;18.00;1.00
4183;DHT22;2105;52.300;9.182;2022-07-04T06:14:40;18.10;1.00
4183;DHT22;2105;52.300;9.182;2022-07-04T06:17:06;18.10;99.90
4183;DHT22;2105;52.300;9.182;2022-07-04T06:19:33;18.20;1.00
4183;DHT22;2105;52.300;9.182;2022-07-04T06:22:00;18.30;1.00
4183;DHT22;2105;52.300;9.182;2022-07-04T06:24:26;18.20;99.90
4183;DHT22;2105;52.300;9.182;2022-07-04T06:26:53;18.10;99.90
4183;DHT22;2105;52.300;9.182;2022-07-04T06:29:21;18.10;1.00
4183;DHT22;2105;52.300;9.182;2022-07-04T06:31:48;18.00;10.70
4183;DHT22;2105;52.300;9.182;2022-07-04T06:34:14;18.00;1.00
4183;DHT22;2105;52.300;9.182;2022-07-04T06:36:58;18.10;99.90
4183;DHT22;2105;52.300;9.182;2022-07-04T06:39:25;18.30;8.00
4183;DHT22;2105;52.300;9.182;2022-07-04T06:41:52;18.30;1.00
4183;DHT22;2105;52.300;9.182;2022-07-04T06:44:18;18.40;1.00
4183;DHT22;2105;52.300;9.182;2022-07-04T06:46:46;18.20;99.90
4183;DHT22;2105;52.300;9.182;2022-07-04T06:49:13;18.30;1.00
4183;DHT22;2105;52.300;9.182;2022-07-04T06:51:40;18.40;99.90
4183;DHT22;2105;52.300;9.182;2022-07-04T06:54:06;18.60;1.00
4183;DHT22;2105;52.300;9.182;2022-07-04T06:56:33;18.90;99.90
4183;DHT22;2105;52.300;9.182;2022-07-04T06:59:00;18.90;1.00
4183;DHT22;2105;52.300;9.182;2022-07-04T07:01:28;18.90;1.00
4183;DHT22;2105;52.300;9.182;2022-07-04T07:03:56;19.00;1.00
4183;DHT22;2105;52.300;9.182;2022-07-04T07:06:23;19.20;9.00
4183;DHT22;2105;52.300;9.182;2022-07-04T07:08:49;19.50;1.00
4183;DHT22;2105;52.300;9.182;2022-07-04T07:11:16;19.70;1.00
4183;DHT22;2105;52.300;9.182;2022-07-04T07:13:46;20.20;99.90
4183;DHT22;2105;52.300;9.182;2022-07-04T07:16:14;20.70;33.60
4183;DHT22;2105;52.300;9.182;2022-07-04T07:18:41;20.50;99.90
4183;DHT22;2105;52.300;9.182;2022-07-04T07:21:09;20.20;99.90
4183;DHT22;2105;52.300;9.182;2022-07-04T07:23:37;20.30;99.90
4183;DHT22;2105;52.300;9.182;2022-07-04T07:26:04;20.50;99.90
4183;DHT22;2105;52.300;9.182;2022-07-04T07:28:31;20.70;99.90
4183;DHT22;2105;52.300;9.182;2022-07-04T07:30:58;21.60;99.90
4183;DHT22;2105;52.300;9.182;2022-07-04T07:33:24;22.40;1.00
4183;DHT22;2105;52.300;9.182;2022-07-04T07:35:51;23.40;99.90
4183;DHT22;2105;52.300;9.182;2022-07-04T07:38:19;24.10;99.90
4183;DHT22;2105;52.300;9.182;2022-07-04T07:40:46;23.90;1.00
4183;DHT22;2105;52.300;9.182;2022-07-04T07:43:13;23.10;36.80
4183;DHT22;2105;52.300;9.182;2022-07-04T07:45:39;23.00;99.90
4183;DHT22;2105;52.300;9.182;2022-07-04T07:48:06;23.60;99.90
4183;DHT22;2105;52.300;9.182;2022-07-04T07:50:33;24.40;1.00
4183;DHT22;2105;52.300;9.182;2022-07-04T07:53:00;23.90;1.00
4183;DHT22;2105;52.300;9.182;2022-07-04T07:55:28;22.10;1.00
4183;DHT22;2105;52.300;9.182;2022-07-04T07:57:54;21.10;99.90
4183;DHT22;2105;52.300;9.182;2022-07-04T08:00:23;21.10;99.90
4183;DHT22;2105;52.300;9.182;2022-07-04T08:02:50;21.20;99.90
4183;DHT22;2105;52.300;9.182;2022-07-04T08:05:34;21.40;80.90
4183;DHT22;2105;52.300;9.182;2022-07-04T08:08:02;21.30;43.10
4183;DHT22;2105;52.300;9.182;2022-07-04T08:10:30;21.00;99.90
4183;DHT22;2105;52.300;9.182;2022-07-04T08:12:57;21.00;99.90
4183;DHT22;2105;52.300;9.182;2022-07-04T08:15:24;20.90;20.40
4183;DHT22;2105;52.300;9.182;2022-07-04T08:17:51;20.80;1.00
4183;DHT22;2105;52.300;9.182;2022-07-04T08:20:18;20.60;44.20
4183;DHT22;2105;52.300;9.182;2022-07-04T08:22:45;20.60;1.00
4183;DHT22;2105;52.300;9.182;2022-07-04T08:25:12;20.80;99.90
4183;DHT22;2105;52.300;9.182;2022-07-04T08:27:41;21.10;47.90
4183;DHT22;2105;52.300;9.182;2022-07-04T08:30:08;21.20;1.00
4183;DHT22;2105;52.300;9.182;2022-07-04T08:32:35;21.30;1.00
4183;DHT22;2105;52.300;9.182;2022-07-04T08:35:03;21.20;1.00
4183;DHT22;2105;52.300;9.182;2022-07-04T08:37:29;21.10;1.00
4183;DHT22;2105;52.300;9.182;2022-07-04T08:39:56;21.10;1.00
4183;DHT22;2105;52.300;9.182;2022-07-04T08:42:23;21.10;1.00
4183;DHT22;2105;52.300;9.182;2022-07-04T08:44:52;21.20;1.00
4183;DHT22;2105;52.300;9.182;2022-07-04T08:47:21;21.30;1.00
4183;DHT22;2105;52.300;9.182;2022-07-04T08:49:53;21.40;1.00
4183;DHT22;2105;52.300;9.182;2022-07-04T08:52:30;21.50;1.00
4183;DHT22;2105;52.300;9.182;2022-07-04T08:55:01;21.70;1.00
4183;DHT22;2105;52.300;9.182;2022-07-04T08:57:46;21.70;99.90
4183;DHT22;2105;52.300;9.182;2022-07-04T09:00:32;21.60;99.90
4183;DHT22;2105;52.300;9.182;2022-07-04T09:03:01;21.60;99.90
4183;DHT22;2105;52.300;9.182;2022-07-04T09:05:29;21.60;99.90
4183;DHT22;2105;52.300;9.182;2022-07-04T09:07:58;21.20;99.90
4183;DHT22;2105;52.300;9.182;2022-07-04T09:10:25;21.50;99.90
4183;DHT22;2105;52.300;9.182;2022-07-04T09:12:52;21.80;99.90
4183;DHT22;2105;52.300;9.182;2022-07-04T09:15:19;22.30;99.90
4183;DHT22;2105;52.300;9.182;2022-07-04T09:17:47;22.40;99.90
4183;DHT22;2105;52.300;9.182;2022-07-04T09:20:15;22.50;99.90
4183;DHT22;2105;52.300;9.182;2022-07-04T09:22:43;22.80;99.90
4183;DHT22;2105;52.300;9.182;2022-07-04T09:25:10;22.90;99.90
4183;DHT22;2105;52.300;9.182;2022-07-04T09:27:41;22.80;99.90
4183;DHT22;2105;52.300;9.182;2022-07-04T09:30:11;23.20;99.90
4183;DHT22;2105;52.300;9.182;2022-07-04T09:32:39;22.70;99.90
4183;DHT22;2105;52.300;9.182;2022-07-04T09:35:09;22.60;99.90
4183;DHT22;2105;52.300;9.182;2022-07-04T09:37:38;22.50;99.90
4183;DHT22;2105;52.300;9.182;2022-07-04T09:40:08;22.70;99.90
4183;DHT22;2105;52.300;9.182;2022-07-04T09:42:36;23.00;99.90
4183;DHT22;2105;52.300;9.182;2022-07-04T09:45:08;23.40;99.90
4183;DHT22;2105;52.300;9.182;2022-07-04T09:47:35;23.50;99.90
4183;DHT22;2105;52.300;9.182;2022-07-04T09:50:05;23.50;98.00
4183;DHT22;2105;52.300;9.182;2022-07-04T09:52:44;23.40;99.90
4183;DHT22;2105;52.300;9.182;2022-07-04T09:55:10;23.50;99.90
4183;DHT22;2105;52.300;9.182;2022-07-04T09:57:44;23.60;99.90
4183;DHT22;2105;52.300;9.182;2022-07-04T10:00:21;23.70;47.40
4183;DHT22;2105;52.300;9.182;2022-07-04T10:02:48;23.90;99.90
4183;DHT22;2105;52.300;9.182;2022-07-04T10:05:23;23.90;94.60
4183;DHT22;2105;52.300;9.182;2022-07-04T10:07:53;24.00;95.80
4183;DHT22;2105;52.300;9.182;2022-07-04T10:10:23;24.20;99.90
4183;DHT22;2105;52.300;9.182;2022-07-04T10:12:50;24.40;26.80
4183;DHT22;2105;52.300;9.182;2022-07-04T10:15:17;24.40;25.60
4183;DHT22;2105;52.300;9.182;2022-07-04T10:17:44;24.50;19.00
4183;DHT22;2105;52.300;9.182;2022-07-04T10:20:11;24.20;9.50
4183;DHT22;2105;52.300;9.182;2022-07-04T10:22:38;24.20;18.20
4183;DHT22;2105;52.300;9.182;2022-07-04T10:25:08;24.30;31.00
4183;DHT22;2105;52.300;9.182;2022-07-04T10:27:36;24.20;1.00
4183;DHT22;2105;52.300;9.182;2022-07-04T10:30:05;24.50;16.80
4183;DHT22;2105;52.300;9.182;2022-07-04T10:32:33;24.60;1.00
4183;DHT22;2105;52.300;9.182;2022-07-04T10:35:00;24.00;31.30
4183;DHT22;2105;52.300;9.182;2022-07-04T10:38:01;24.10;40.10
4183;DHT22;2105;52.300;9.182;2022-07-04T10:40:44;24.00;23.90
4183;DHT22;2105;52.300;9.182;2022-07-04T10:43:36;23.70;39.80
4183;DHT22;2105;52.300;9.182;2022-07-04T10:46:27;23.80;47.40
4183;DHT22;2105;52.300;9.182;2022-07-04T10:48:56;23.90;39.70
4183;DHT22;2105;52.300;9.182;2022-07-04T10:51:35;24.30;32.70
4183;DHT22;2105;52.300;9.182;2022-07-04T10:54:05;24.60;32.70
4183;DHT22;2105;52.300;9.182;2022-07-04T10:56:40;24.70;1.00
4183;DHT22;2105;52.300;9.182;2022-07-04T10:59:12;24.90;7.30
4183;DHT22;2105;52.300;9.182;2022-07-04T11:01:39;25.00;1.00
4183;DHT22;2105;52.300;9.182;2022-07-04T11:04:10;24.60;1.00
4183;DHT22;2105;52.300;9.182;2022-07-04T11:06:52;24.60;1.00
4183;DHT22;2105;52.300;9.182;2022-07-04T11:09:21;24.70;1.00
4183;DHT22;2105;52.300;9.182;2022-07-04T11:11:51;24.40;1.80
4183;DHT22;2105;52.300;9.182;2022-07-04T11:14:38;24.20;29.20
4183;DHT22;2105;52.300;9.182;2022-07-04T11:17:06;23.80;24.30
4183;DHT22;2105;52.300;9.182;2022-07-04T11:19:33;23.50;30.90
4183;DHT22;2105;52.300;9.182;2022-07-04T11:22:00;23.50;56.50
4183;DHT22;2105;52.300;9.182;2022-07-04T11:24:28;24.00;54.90
4183;DHT22;2105;52.300;9.182;2022-07-04T11:26:56;24.40;30.60
4183;DHT22;2105;52.300;9.182;2022-07-04T11:29:23;24.80;1.30
4183;DHT22;2105;52.300;9.182;2022-07-04T11:31:51;24.50;1.00
4183;DHT22;2105;52.300;9.182;2022-07-04T11:34:19;23.80;1.00
4183;DHT22;2105;52.300;9.182;2022-07-04T11:36:47;23.50;79.50
4183;DHT22;2105;52.300;9.182;2022-07-04T11:39:15;24.00;99.90
4183;DHT22;2105;52.300;9.182;2022-07-04T11:41:45;24.70;99.90
4183;DHT22;2105;52.300;9.182;2022-07-04T11:44:33;25.10;11.20
4183;DHT22;2105;52.300;9.182;2022-07-04T11:47:20;25.30;9.00
4183;DHT22;2105;52.300;9.182;2022-07-04T11:49:49;25.00;1.00
4183;DHT22;2105;52.300;9.182;2022-07-04T11:52:18;24.30;1.00
4183;DHT22;2105;52.300;9.182;2022-07-04T11:54:46;23.60;1.00
4183;DHT22;2105;52.300;9.182;2022-07-04T11:57:19;23.30;37.20
4183;DHT22;2105;52.300;9.182;2022-07-04T11:59:55;23.10;42.30
4183;DHT22;2105;52.300;9.182;2022-07-04T12:02:22;23.00;63.50
4183;DHT22;2105;52.300;9.182;2022-07-04T12:04:49;22.80;99.90
4183;DHT22;2105;52.300;9.182;2022-07-04T12:07:17;23.10;99.90
4183;DHT22;2105;52.300;9.182;2022-07-04T12:09:45;23.40;99.90
4183;DHT22;2105;52.300;9.182;2022-07-04T12:12:13;23.60;91.40
4183;DHT22;2105;52.300;9.182;2022-07-04T12:14:58;23.60;80.30
4183;DHT22;2105;52.300;9.182;2022-07-04T12:17:30;23.60;99.90
4183;DHT22;2105;52.300;9.182;2022-07-04T12:19:59;23.60;99.90
4183;DHT22;2105;52.300;9.182;2022-07-04T12:22:37;23.70;99.90
4183;DHT22;2105;52.300;9.182;2022-07-04T12:25:07;23.70;99.90
4183;DHT22;2105;52.300;9.182;2022-07-04T12:27:36;23.60;99.90
4183;DHT22;2105;52.300;9.182;2022-07-04T12:30:05;23.60;79.00
4183;DHT22;2105;52.300;9.182;2022-07-04T12:32:44;23.70;99.90
4183;DHT22;2105;52.300;9.182;2022-07-04T12:35:45;24.40;86.40
4183;DHT22;2105;52.300;9.182;2022-07-04T12:38:14;25.10;99.90
4183;DHT22;2105;52.300;9.182;2022-07-04T12:41:05;25.20;1.50
4183;DHT22;2105;52.300;9.182;2022-07-04T12:43:47;25.00;1.00
4183;DHT22;2105;52.300;9.182;2022-07-04T12:46:27;25.10;1.00
4183;DHT22;2105;52.300;9.182;2022-07-04T12:48:55;25.10;1.00
4183;DHT22;2105;52.300;9.182;2022-07-04T12:51:24;24.80;1.00
4183;DHT22;2105;52.300;9.182;2022-07-04T12:53:54;24.50;1.00
4183;DHT22;2105;52.300;9.182;2022-07-04T12:56:28;24.50;1.00
4183;DHT22;2105;52.300;9.182;2022-07-04T12:58:55;24.60;11.60
4183;DHT22;2105;52.300;9.182;2022-07-04T13:01:24;25.10;1.00
4183;DHT22;2105;52.300;9.182;2022-07-04T13:03:50;25.50;1.00
4183;DHT22;2105;52.300;9.182;2022-07-04T13:06:17;25.90;1.00
4183;DHT22;2105;52.300;9.182;2022-07-04T13:08:44;26.20;1.00
4183;DHT22;2105;52.300;9.182;2022-07-04T13:11:11;26.20;1.00
4183;DHT22;2105;52.300;9.182;2022-07-04T13:13:55;26.30;1.00
4183;DHT22;2105;52.300;9.182;2022-07-04T13:16:23;26.40;1.00
4183;DHT22;2105;52.300;9.182;2022-07-04T13:18:50;26.60;1.00
4183;DHT22;2105;52.300;9.182;2022-07-04T13:21:17;26.80;1.00
4183;DHT22;2105;52.300;9.182;2022-07-04T13:23:43;27.00;1.00
4183;DHT22;2105;52.300;9.182;2022-07-04T13:26:10;27.20;1.00
4183;DHT22;2105;52.300;9.182;2022-07-04T13:28:37;27.00;1.00
4183;DHT22;2105;52.300;9.182;2022-07-04T13:31:04;26.70;1.00
4183;DHT22;2105;52.300;9.182;2022-07-04T13:33:32;26.80;1.00
4183;DHT22;2105;52.300;9.182;2022-07-04T13:35:59;26.80;1.00
4183;DHT22;2105;52.300;9.182;2022-07-04T13:38:26;26.70;1.00
4183;DHT22;2105;52.300;9.182;2022-07-04T13:40:53;26.50;1.00
4183;DHT22;2105;52.300;9.182;2022-07-04T13:43:21;26.40;1.00
4183;DHT22;2105;52.300;9.182;2022-07-04T13:45:47;26.50;1.00
4183;DHT22;2105;52.300;9.182;2022-07-04T13:48:14;26.90;1.00
4183;DHT22;2105;52.300;9.182;2022-07-04T13:50:42;27.00;1.00
4183;DHT22;2105;52.300;9.182;2022-07-04T13:53:09;27.10;1.00
4183;DHT22;2105;52.300;9.182;2022-07-04T13:55:36;27.40;1.00
4183;DHT22;2105;52.300;9.182;2022-07-04T13:58:04;27.60;1.00
4183;DHT22;2105;52.300;9.182;2022-07-04T14:00:31;27.60;1.00
4183;DHT22;2105;52.300;9.182;2022-07-04T14:02:58;27.60;1.00
4183;DHT22;2105;52.300;9.182;2022-07-04T14:05:25;27.50;1.00
4183;DHT22;2105;52.300;9.182;2022-07-04T14:07:54;27.30;1.00
4183;DHT22;2105;52.300;9.182;2022-07-04T14:10:21;27.20;1.00
4183;DHT22;2105;52.300;9.182;2022-07-04T14:12:47;27.10;1.00
4183;DHT22;2105;52.300;9.182;2022-07-04T14:15:14;27.30;1.00
4183;DHT22;2105;52.300;9.182;2022-07-04T14:17:41;27.50;1.00
4183;DHT22;2105;52.300;9.182;2022-07-04T14:20:09;27.50;1.00
4183;DHT22;2105;52.300;9.182;2022-07-04T14:22:37;27.50;1.00
4183;DHT22;2105;52.300;9.182;2022-07-04T14:25:07;27.50;1.00
4183;DHT22;2105;52.300;9.182;2022-07-04T14:27:34;27.50;1.00
4183;DHT22;2105;52.300;9.182;2022-07-04T14:30:01;27.60;1.00
4183;DHT22;2105;52.300;9.182;2022-07-04T14:32:27;27.30;1.00
4183;DHT22;2105;52.300;9.182;2022-07-04T14:34:54;27.20;1.00
4183;DHT22;2105;52.300;9.182;2022-07-04T14:37:21;27.20;1.00
4183;DHT22;2105;52.300;9.182;2022-07-04T14:39:48;27.30;1.00
4183;DHT22;2105;52.300;9.182;2022-07-04T14:42:16;27.00;1.00
4183;DHT22;2105;52.300;9.182;2022-07-04T14:44:43;26.60;1.00
4183;DHT22;2105;52.300;9.182;2022-07-04T14:47:09;26.30;1.00
4183;DHT22;2105;52.300;9.182;2022-07-04T14:49:36;26.40;1.00
4183;DHT22;2105;52.300;9.182;2022-07-04T14:52:03;26.30;1.00
4183;DHT22;2105;52.300;9.182;2022-07-04T14:54:30;26.00;1.00
4183;DHT22;2105;52.300;9.182;2022-07-04T14:56:57;25.80;1.00
4183;DHT22;2105;52.300;9.182;2022-07-04T14:59:25;26.00;1.00
4183;DHT22;2105;52.300;9.182;2022-07-04T15:01:52;26.30;1.00
4183;DHT22;2105;52.300;9.182;2022-07-04T15:04:19;26.60;1.00
4183;DHT22;2105;52.300;9.182;2022-07-04T15:06:46;26.80;1.00
4183;DHT22;2105;52.300;9.182;2022-07-04T15:09:13;26.80;1.00
4183;DHT22;2105;52.300;9.182;2022-07-04T15:11:39;26.60;1.00
4183;DHT22;2105;52.300;9.182;2022-07-04T15:14:06;26.60;1.00
4183;DHT22;2105;52.300;9.182;2022-07-04T15:16:34;26.60;1.00
4183;DHT22;2105;52.300;9.182;2022-07-04T15:19:01;26.70;1.00
4183;DHT22;2105;52.300;9.182;2022-07-04T15:21:27;26.70;1.00
4183;DHT22;2105;52.300;9.182;2022-07-04T15:24:11;26.70;1.00
4183;DHT22;2105;52.300;9.182;2022-07-04T15:26:40;26.60;1.00
4183;DHT22;2105;52.300;9.182;2022-07-04T15:29:07;26.30;1.00
4183;DHT22;2105;52.300;9.182;2022-07-04T15:31:35;25.70;1.00
4183;DHT22;2105;52.300;9.182;2022-07-04T15:34:02;25.20;1.00
4183;DHT22;2105;52.300;9.182;2022-07-04T15:36:29;25.10;1.00
4183;DHT22;2105;52.300;9.182;2022-07-04T15:38:55;25.10;1.00
4183;DHT22;2105;52.300;9.182;2022-07-04T15:41:22;25.00;1.00
4183;DHT22;2105;52.300;9.182;2022-07-04T15:43:49;25.00;1.00
4183;DHT22;2105;52.300;9.182;2022-07-04T15:46:15;25.10;1.00
4183;DHT22;2105;52.300;9.182;2022-07-04T15:48:45;25.20;1.00
4183;DHT22;2105;52.300;9.182;2022-07-04T15:51:11;25.20;1.00
4183;DHT22;2105;52.300;9.182;2022-07-04T15:53:38;25.00;1.00
4183;DHT22;2105;52.300;9.182;2022-07-04T15:56:05;25.00;1.00
4183;DHT22;2105;52.300;9.182;2022-07-04T15:58:31;25.00;1.00
4183;DHT22;2105;52.300;9.182;2022-07-04T16:00:58;24.90;1.00
4183;DHT22;2105;52.300;9.182;2022-07-04T16:03:25;24.70;1.00
4183;DHT22;2105;52.300;9.182;2022-07-04T16:05:53;24.60;1.00
4183;DHT22;2105;52.300;9.182;2022-07-04T16:08:19;24.30;1.00
4183;DHT22;2105;52.300;9.182;2022-07-04T16:10:46;24.20;1.00
4183;DHT22;2105;52.300;9.182;2022-07-04T16:13:13;24.20;1.00
4183;DHT22;2105;52.300;9.182;2022-07-04T16:15:39;24.20;1.00